createdAt,value
2022-09-17T03:02:35.800Z,3.83
2022-09-17T03:05:04.225Z,3.80
2022-09-17T03:07:32.725Z,4.25
2022-09-17T03:09:59.678Z,2.85
2022-09-17T03:12:26.827Z,3.10
2022-09-17T03:14:53.268Z,2.97
2022-09-17T03:17:19.784Z,3.97
2022-09-17T03:19:46.181Z,2.95
2022-09-17T03:22:12.655Z,3.17
2022-09-17T03:24:39.111Z,3.17
2022-09-17T03:27:05.707Z,3.15
2022-09-17T03:29:32.097Z,2.78
2022-09-17T03:31:59.293Z,2.50
2022-09-17T03:34:25.725Z,3.33
2022-09-17T03:36:52.382Z,2.63
2022-09-17T03:39:18.832Z,2.85
2022-09-17T03:41:45.342Z,2.90
2022-09-17T03:44:11.771Z,2.47
2022-09-17T03:46:38.372Z,2.75
2022-09-17T03:49:04.920Z,2.80
2022-09-17T03:51:31.366Z,2.15
2022-09-17T03:53:57.787Z,3.40
2022-09-17T03:56:24.234Z,1.92
2022-09-17T03:58:50.700Z,3.10
2022-09-17T04:01:17.308Z,2.58
2022-09-17T04:03:45.278Z,2.67
2022-09-17T04:06:11.870Z,2.40
2022-09-17T04:08:38.353Z,2.47
2022-09-17T04:11:05.025Z,2.42
2022-09-17T04:13:31.503Z,2.67
2022-09-17T04:15:58.119Z,2.78
2022-09-17T04:18:24.617Z,2.97
2022-09-17T04:20:51.137Z,2.20
2022-09-17T04:23:17.590Z,2.00
2022-09-17T04:25:44.223Z,2.33
2022-09-17T04:28:11.418Z,2.63
2022-09-17T04:30:38.444Z,2.30
2022-09-17T04:33:05.311Z,2.55
2022-09-17T04:35:31.823Z,2.75
2022-09-17T04:37:58.318Z,2.75
2022-09-17T04:40:26.095Z,2.17
2022-09-17T04:42:56.869Z,3.28
2022-09-17T04:45:23.665Z,2.60
2022-09-17T04:47:52.968Z,2.65
2022-09-17T04:50:19.495Z,2.25
2022-09-17T04:52:46.483Z,2.60
2022-09-17T04:55:13.877Z,2.70
2022-09-17T04:57:46.242Z,2.75
2022-09-17T05:00:13.557Z,3.03
2022-09-17T05:02:40.068Z,3.50
2022-09-17T05:05:06.681Z,5.72
2022-09-17T05:07:33.151Z,5.13
2022-09-17T05:09:59.569Z,4.90
2022-09-17T05:12:25.975Z,2.72
2022-09-17T05:14:52.441Z,3.92
2022-09-17T05:17:18.878Z,2.63
2022-09-17T05:19:45.274Z,3.47
2022-09-17T05:22:11.743Z,2.88
2022-09-17T05:24:39.707Z,2.95
2022-09-17T05:27:07.120Z,2.70
2022-09-17T05:29:33.510Z,3.30
2022-09-17T05:32:00.008Z,3.13
2022-09-17T05:34:26.452Z,2.70
2022-09-17T05:36:52.981Z,2.97
2022-09-17T05:39:21.331Z,3.03
2022-09-17T05:41:47.705Z,3.17
2022-09-17T05:44:17.961Z,3.22
2022-09-17T05:46:45.541Z,3.15
2022-09-17T05:49:12.954Z,3.55
2022-09-17T05:51:39.558Z,3.55
2022-09-17T05:54:06.264Z,3.45
2022-09-17T05:56:32.831Z,3.25
2022-09-17T05:58:59.407Z,3.97
2022-09-17T06:01:26.295Z,3.78
2022-09-17T06:03:53.761Z,3.72
2022-09-17T06:06:20.308Z,3.65
2022-09-17T06:08:46.835Z,3.70
2022-09-17T06:11:13.526Z,4.53
2022-09-17T06:13:40.027Z,3.42
2022-09-17T06:16:06.574Z,4.28
2022-09-17T06:18:33.046Z,4.45
2022-09-17T06:21:03.984Z,4.43
2022-09-17T06:23:37.242Z,5.00
2022-09-17T06:26:05.652Z,4.07
2022-09-17T06:28:32.556Z,4.80
2022-09-17T06:31:04.088Z,4.38
2022-09-17T06:33:31.863Z,4.78
2022-09-17T06:36:04.162Z,4.60
2022-09-17T06:38:33.174Z,4.45
2022-09-17T06:40:59.693Z,5.72
2022-09-17T06:43:26.675Z,4.80
2022-09-17T06:46:00.794Z,4.50
2022-09-17T06:48:28.319Z,4.68
2022-09-17T06:50:55.962Z,4.57
2022-09-17T06:53:23.715Z,5.43
2022-09-17T06:55:51.007Z,4.43
2022-09-17T06:58:17.667Z,4.05
2022-09-17T07:00:44.243Z,4.82
2022-09-17T07:03:10.805Z,5.72
2022-09-17T07:05:37.202Z,4.13
2022-09-17T07:08:04.640Z,3.67
2022-09-17T07:10:31.830Z,4.03
2022-09-17T07:12:59.348Z,4.55
2022-09-17T07:15:25.984Z,4.45
2022-09-17T07:17:52.483Z,4.50
2022-09-17T07:20:19.261Z,4.82
2022-09-17T07:22:45.732Z,4.18
2022-09-17T07:25:13.444Z,4.30
2022-09-17T07:27:39.910Z,3.70
2022-09-17T07:30:07.057Z,3.78
2022-09-17T07:32:33.645Z,4.13
2022-09-17T07:35:00.046Z,4.55
2022-09-17T07:37:26.650Z,4.03
2022-09-17T07:39:53.075Z,4.00
2022-09-17T07:42:19.495Z,4.13
2022-09-17T07:44:46.863Z,3.95
2022-09-17T07:47:13.335Z,4.20
2022-09-17T07:49:39.750Z,4.57
2022-09-17T07:52:06.577Z,3.97
2022-09-17T07:54:38.997Z,3.92
2022-09-17T07:57:05.828Z,3.95
2022-09-17T07:59:32.360Z,5.82
2022-09-17T08:01:59.148Z,4.15
2022-09-17T08:04:26.005Z,5.20
2022-09-17T08:06:52.441Z,4.22
2022-09-17T08:09:18.912Z,3.95
2022-09-17T08:11:55.650Z,3.63
2022-09-17T08:14:26.961Z,4.00
2022-09-17T08:16:55.758Z,3.40
2022-09-17T08:19:22.257Z,2.88
2022-09-17T08:21:48.745Z,2.53
2022-09-17T08:24:15.305Z,3.85
2022-09-17T08:26:41.939Z,3.22
2022-09-17T08:29:08.554Z,3.45
2022-09-17T08:31:35.074Z,3.25
2022-09-17T08:34:01.716Z,3.65
2022-09-17T08:36:28.618Z,3.47
2022-09-17T08:38:55.910Z,3.35
2022-09-17T08:41:44.102Z,2.80
2022-09-17T08:44:22.390Z,3.72
2022-09-17T08:46:57.957Z,3.85
2022-09-17T08:49:36.692Z,3.45
2022-09-17T08:52:10.124Z,3.33
2022-09-17T08:54:55.568Z,3.53
2022-09-17T08:57:36.306Z,3.35
2022-09-17T09:00:18.659Z,3.38
2022-09-17T09:03:00.365Z,3.03
2022-09-17T09:08:04.540Z,3.25
2022-09-17T09:10:46.543Z,3.67
2022-09-17T09:13:17.141Z,4.00
2022-09-17T09:15:53.513Z,3.88
2022-09-17T09:18:22.898Z,2.90
2022-09-17T09:21:25.566Z,3.15
2022-09-17T09:24:07.758Z,2.72
2022-09-17T09:26:40.061Z,3.40
2022-09-17T09:29:21.173Z,3.30
2022-09-17T09:31:55.900Z,3.55
2022-09-17T09:34:23.836Z,3.20
2022-09-17T09:36:51.764Z,2.75
2022-09-17T09:39:25.402Z,3.05
2022-09-17T09:42:27.146Z,3.00
2022-09-17T09:44:53.696Z,3.92
2022-09-17T09:47:26.348Z,2.72
2022-09-17T09:50:05.564Z,3.00
2022-09-17T09:52:59.576Z,2.90
2022-09-17T09:56:04.227Z,3.58
2022-09-17T09:58:39.259Z,3.10
2022-09-17T10:01:14.164Z,2.97
2022-09-17T10:03:42.258Z,2.67
2022-09-17T10:06:10.601Z,2.83
2022-09-17T10:08:40.124Z,3.28
2022-09-17T10:11:12.100Z,2.38
2022-09-17T10:13:40.762Z,2.53
2022-09-17T10:16:42.450Z,2.22
2022-09-17T10:19:08.794Z,2.67
2022-09-17T10:21:37.912Z,2.83
2022-09-17T10:24:14.340Z,2.90
2022-09-17T10:26:40.822Z,2.58
2022-09-17T10:29:14.637Z,2.72
2022-09-17T10:31:56.096Z,2.35
2022-09-17T10:34:28.842Z,2.60
2022-09-17T10:36:56.688Z,2.55
2022-09-17T10:39:32.609Z,3.20
2022-09-17T10:42:15.663Z,8.10
2022-09-17T10:45:02.333Z,4.30
2022-09-17T10:47:37.342Z,2.85
2022-09-17T10:50:22.046Z,2.92
2022-09-17T10:52:51.833Z,2.55
2022-09-17T10:55:39.359Z,2.90
2022-09-17T10:58:08.667Z,3.13
2022-09-17T11:00:59.305Z,2.90
2022-09-17T11:03:53.562Z,3.20
2022-09-17T11:07:05.801Z,2.67
2022-09-17T11:09:52.689Z,1.88
2022-09-17T11:12:34.360Z,2.30
2022-09-17T11:15:13.747Z,2.30
2022-09-17T11:18:07.538Z,2.17
2022-09-17T11:20:56.788Z,2.22
2022-09-17T11:23:38.275Z,2.22
2022-09-17T11:26:11.668Z,2.00
2022-09-17T11:29:29.081Z,1.60
2022-09-17T11:32:13.606Z,2.03
2022-09-17T11:34:51.293Z,2.60
2022-09-17T11:37:27.015Z,2.05
2022-09-17T11:40:15.216Z,2.92
2022-09-17T11:42:48.400Z,2.88
2022-09-17T11:45:20.303Z,2.45
2022-09-17T11:47:56.282Z,2.00
2022-09-17T11:50:29.657Z,2.30
2022-09-17T11:53:14.977Z,2.72
2022-09-17T11:55:55.658Z,1.58
2022-09-17T11:58:47.909Z,2.03
2022-09-17T12:01:26.047Z,1.88
2022-09-17T12:04:01.728Z,2.08
2022-09-17T12:06:40.304Z,2.15
2022-09-17T12:09:17.079Z,2.15
2022-09-17T12:11:59.277Z,2.10
2022-09-17T12:14:51.981Z,2.38
2022-09-17T12:17:39.939Z,2.47
2022-09-17T12:20:15.262Z,1.85
2022-09-17T12:22:46.017Z,1.55
2022-09-17T12:25:13.261Z,1.90
2022-09-17T12:28:01.480Z,1.38
2022-09-17T12:30:40.771Z,1.58
2022-09-17T12:33:28.957Z,1.92
2022-09-17T12:36:22.261Z,1.60
2022-09-17T12:38:51.591Z,1.77
2022-09-17T12:41:36.103Z,1.55
2022-09-17T12:44:30.283Z,4.38
2022-09-17T12:47:13.275Z,4.13
2022-09-17T12:49:50.252Z,2.45
2022-09-17T12:52:26.151Z,1.73
2022-09-17T12:55:14.765Z,1.98
2022-09-17T12:58:01.702Z,1.88
2022-09-17T13:00:41.405Z,1.85
2022-09-17T13:03:14.933Z,1.83
2022-09-17T13:06:03.650Z,1.80
2022-09-17T13:09:09.201Z,1.60
2022-09-17T13:12:00.802Z,1.35
2022-09-17T13:15:07.437Z,1.35
2022-09-17T13:17:46.692Z,1.42
2022-09-17T13:20:15.830Z,2.35
2022-09-17T13:22:54.334Z,1.48
2022-09-17T13:25:22.260Z,1.38
2022-09-17T13:27:50.518Z,1.80
2022-09-17T13:30:18.827Z,1.70
2022-09-17T13:32:47.697Z,1.75
2022-09-17T13:35:16.911Z,1.50
2022-09-17T13:37:45.699Z,1.90
2022-09-17T13:40:34.966Z,1.70
2022-09-17T13:43:04.572Z,1.98
2022-09-17T13:45:33.775Z,1.65
2022-09-17T13:48:08.011Z,1.40
2022-09-17T13:50:43.252Z,2.20
2022-09-17T13:53:12.458Z,1.70
2022-09-17T13:55:42.958Z,2.45
2022-09-17T13:58:28.031Z,1.88
2022-09-17T14:01:00.146Z,1.95
2022-09-17T14:03:44.331Z,2.33
2022-09-17T14:06:14.848Z,1.77
2022-09-17T14:08:44.156Z,2.00
2022-09-17T14:11:22.518Z,1.92
2022-09-17T14:13:49.927Z,2.30
2022-09-17T14:16:40.654Z,2.10
2022-09-17T14:19:16.483Z,2.05
2022-09-17T14:21:46.360Z,2.28
2022-09-17T14:24:33.991Z,2.00
2022-09-17T14:27:22.119Z,1.70
2022-09-17T14:30:06.952Z,2.00
2022-09-17T14:32:51.686Z,2.17
2022-09-17T14:35:29.217Z,2.05
2022-09-17T14:38:00.280Z,2.15
2022-09-17T14:40:28.292Z,2.08
2022-09-17T14:42:57.732Z,1.38
2022-09-17T14:45:31.732Z,1.77
2022-09-17T14:48:30.683Z,1.45
2022-09-17T14:51:18.827Z,1.73
2022-09-17T14:53:49.568Z,1.38
2022-09-17T14:56:22.963Z,1.20
2022-09-17T14:58:54.166Z,0.98
2022-09-17T15:01:24.772Z,0.85
2022-09-17T15:04:20.186Z,1.20
2022-09-17T15:06:46.807Z,0.80
2022-09-17T15:09:25.451Z,0.90
2022-09-17T15:11:58.242Z,0.80
2022-09-17T15:14:33.599Z,0.90
2022-09-17T15:17:03.222Z,0.63
2022-09-17T15:19:42.763Z,0.70
2022-09-17T15:22:30.538Z,1.15
2022-09-17T15:25:02.568Z,0.52
2022-09-17T15:27:34.075Z,0.90
2022-09-17T15:30:06.001Z,0.60
2022-09-17T15:32:33.626Z,0.52
2022-09-17T15:35:15.457Z,0.68
2022-09-17T15:40:34.670Z,0.80
2022-09-17T15:43:26.922Z,1.10
2022-09-17T15:45:54.299Z,0.88
2022-09-17T15:48:35.646Z,0.60
2022-09-17T15:51:04.486Z,0.50
2022-09-17T15:53:32.773Z,0.75
2022-09-17T15:56:07.653Z,0.80
2022-09-17T15:58:51.117Z,0.98
2022-09-17T16:01:17.618Z,0.98
2022-09-17T16:03:44.499Z,1.00
2022-09-17T16:06:32.818Z,0.80
2022-09-17T16:09:00.917Z,1.20
2022-09-17T16:11:30.411Z,0.65
2022-09-17T16:13:58.521Z,1.58
2022-09-17T16:16:34.003Z,1.55
2022-09-17T16:19:00.670Z,2.40
2022-09-17T16:21:27.545Z,1.15
2022-09-17T16:23:55.154Z,1.23
2022-09-17T16:26:24.979Z,0.95
2022-09-17T16:28:54.714Z,1.02
2022-09-17T16:31:21.304Z,0.95
2022-09-17T16:33:47.900Z,0.82
2022-09-17T16:36:16.895Z,2.20
2022-09-17T16:38:43.354Z,1.20
2022-09-17T16:41:09.989Z,1.45
2022-09-17T16:43:38.327Z,1.10
2022-09-17T16:46:10.536Z,0.80
2022-09-17T16:48:37.674Z,0.85
2022-09-17T16:51:08.638Z,1.23
2022-09-17T16:53:35.116Z,1.05
2022-09-17T16:56:01.831Z,1.10
2022-09-17T16:58:28.317Z,1.05
2022-09-17T17:00:54.938Z,1.30
2022-09-17T17:03:21.588Z,1.42
2022-09-17T17:05:48.125Z,1.15
2022-09-17T17:08:14.703Z,2.40
2022-09-17T17:10:41.486Z,1.50
2022-09-17T17:13:07.896Z,0.93
2022-09-17T17:15:34.542Z,1.23
2022-09-17T17:18:01.116Z,2.15
2022-09-17T17:20:27.665Z,1.60
2022-09-17T17:22:55.315Z,1.55
2022-09-17T17:25:23.602Z,1.20
2022-09-17T17:27:50.314Z,1.88
2022-09-17T17:30:17.514Z,1.40
2022-09-17T17:32:49.177Z,1.30
2022-09-17T17:35:15.962Z,1.70
2022-09-17T17:37:42.664Z,1.27
2022-09-17T17:40:10.354Z,3.28
2022-09-17T17:42:39.339Z,4.22
2022-09-17T17:45:07.611Z,5.32
2022-09-17T17:47:34.390Z,1.33
2022-09-17T17:50:00.934Z,1.08
2022-09-17T17:52:27.991Z,1.20
2022-09-17T17:54:54.423Z,1.75
2022-09-17T17:57:21.067Z,1.08
2022-09-17T17:59:47.738Z,1.30
2022-09-17T18:02:14.387Z,1.20
2022-09-17T18:04:41.051Z,1.45
2022-09-17T18:07:07.742Z,1.17
2022-09-17T18:09:34.313Z,1.02
2022-09-17T18:12:00.793Z,1.60
2022-09-17T18:14:27.497Z,1.27
2022-09-17T18:16:54.341Z,1.23
2022-09-17T18:19:20.929Z,1.88
2022-09-17T18:21:47.455Z,2.88
2022-09-17T18:24:13.981Z,2.08
2022-09-17T18:26:40.450Z,1.40
2022-09-17T18:29:08.161Z,1.23
2022-09-17T18:31:35.344Z,1.30
2022-09-17T18:34:04.931Z,1.10
2022-09-17T18:36:34.063Z,1.23
2022-09-17T18:39:56.927Z,1.50
2022-09-17T18:41:49.025Z,1.67
2022-09-17T18:44:15.862Z,1.45
2022-09-17T18:46:42.714Z,1.48
2022-09-17T18:49:09.315Z,1.65
2022-09-17T18:51:35.781Z,1.73
2022-09-17T18:54:03.938Z,1.42
2022-09-17T18:56:35.068Z,2.13
2022-09-17T18:59:07.144Z,1.23
2022-09-17T19:01:34.558Z,1.20
2022-09-17T19:04:01.189Z,1.20
2022-09-17T19:06:28.147Z,1.40
2022-09-17T19:08:58.893Z,1.33
2022-09-17T19:11:25.491Z,1.93
2022-09-17T19:13:52.121Z,2.03
2022-09-17T19:16:18.572Z,1.52
2022-09-17T19:18:45.155Z,1.20
2022-09-17T19:21:14.447Z,1.40
2022-09-17T19:23:42.855Z,1.70
2022-09-17T19:26:12.772Z,1.55
2022-09-17T19:28:39.545Z,1.35
2022-09-17T19:31:08.411Z,1.13
2022-09-17T19:33:35.235Z,1.77
2022-09-17T19:36:04.135Z,1.05
2022-09-17T19:38:30.622Z,1.20
2022-09-17T19:41:02.964Z,1.30
2022-09-17T19:43:30.048Z,1.33
2022-09-17T19:46:05.970Z,1.45
2022-09-17T19:48:35.721Z,1.88
2022-09-17T19:51:03.059Z,1.40
2022-09-17T19:53:29.533Z,2.15
2022-09-17T19:55:55.946Z,1.40
2022-09-17T19:58:22.390Z,2.88
2022-09-17T20:00:54.878Z,3.08
2022-09-17T20:03:21.461Z,2.38
2022-09-17T20:05:47.954Z,1.52
2022-09-17T20:08:14.468Z,1.63
2022-09-17T20:10:40.919Z,1.92
2022-09-17T20:13:07.370Z,1.65
2022-09-17T20:15:35.691Z,2.45
2022-09-17T20:18:02.950Z,2.13
2022-09-17T20:20:29.439Z,2.70
2022-09-17T20:22:56.166Z,2.30
2022-09-17T20:25:25.454Z,1.95
2022-09-17T20:27:53.238Z,2.50
2022-09-17T20:30:19.666Z,2.10
2022-09-17T20:32:46.221Z,2.13
2022-09-17T20:35:12.670Z,1.60
2022-09-17T20:40:25.704Z,3.15
2022-09-17T20:42:52.212Z,2.30
2022-09-17T20:45:18.638Z,2.60
2022-09-17T20:47:45.134Z,2.30
2022-09-17T20:50:11.575Z,2.28
2022-09-17T20:52:38.010Z,2.38
2022-09-17T20:55:04.873Z,3.17
2022-09-17T20:57:31.536Z,2.38
2022-09-17T21:00:00.757Z,2.40
2022-09-17T21:02:27.593Z,2.67
2022-09-17T21:04:54.138Z,2.58
2022-09-17T21:07:20.713Z,2.92
2022-09-17T21:09:47.295Z,2.67
2022-09-17T21:12:13.818Z,4.30
2022-09-17T21:14:40.229Z,2.70
2022-09-17T21:17:06.669Z,3.65
2022-09-17T21:19:33.174Z,3.17
2022-09-17T21:21:59.662Z,2.10
2022-09-17T21:24:26.142Z,2.17
2022-09-17T21:26:54.046Z,2.50
2022-09-17T21:29:20.745Z,2.92
2022-09-17T21:31:47.409Z,3.20
2022-09-17T21:34:14.722Z,2.38
2022-09-17T21:36:44.281Z,1.90
2022-09-17T21:39:16.277Z,1.80
2022-09-17T21:41:44.024Z,2.13
2022-09-17T21:44:12.032Z,2.15
2022-09-17T21:46:38.715Z,1.90
2022-09-17T21:49:05.821Z,1.90
2022-09-17T21:51:33.987Z,1.90
2022-09-17T21:54:06.877Z,2.40
2022-09-17T21:56:33.879Z,2.42
2022-09-17T21:59:02.987Z,2.90
